This is the latest recevied weather packets stored in our database for station/object DC9VQ-13. If no packets are shown the sender has not sent any weather packets the latest 1 day(s).
| Time | Temp. | Humidity | Pressure | Rain* | Wind** | Luminosity | Snow |
|---|---|---|---|---|---|---|---|
| 1778088949 | 14.44° C | 85% | 1006.4 hPa | 1.02 mm | - | - | - |
| 1778087143 | 15° C | 84% | 1006.1 hPa | 1.52 mm | - | - | - |
| 1778085337 | 15.56° C | 83% | 1006 hPa | 0.51 mm | - | - | - |
| 1778084735 | 15.56° C | 81% | 1006 hPa | 0.25 mm | - | - | - |
| 1778083531 | 16.67° C | 77% | 1006 hPa | 0 mm | - | - | - |
| 1778082929 | 16.67° C | 75% | 1006 hPa | 0 mm | - | - | - |
| 1778081725 | 17.22° C | 71% | 1005.8 hPa | 0 mm | - | - | - |
| 1778079317 | 18.33° C | 65% | 1005.5 hPa | 0 mm | - | - | - |
| 1778078717 | 18.89° C | 65% | 1005.5 hPa | 0 mm | - | - | - |
| 1778078113 | 19.44° C | 63% | 1005.4 hPa | 0 mm | - | - | - |
| 1778072996 | 18.89° C | 67% | 1005.3 hPa | 0 mm | - | - | - |
| 1778071190 | 18.33° C | 68% | 1005.4 hPa | 0 mm | - | - | - |
| 1778069385 | 17.78° C | 69% | 1005.5 hPa | 0 mm | - | - | - |
| 1778068783 | 17.78° C | 69% | 1005.4 hPa | 0 mm | - | - | - |
| 1778067579 | 17.78° C | 70% | 1005.5 hPa | 0 mm | - | - | - |
| 1778066976 | 17.78° C | 69% | 1005.5 hPa | 0 mm | - | - | - |
| 1778066374 | 17.78° C | 68% | 1005.6 hPa | 0 mm | - | - | - |
| 1778062161 | 17.22° C | 72% | 1005.6 hPa | 0 mm | - | - | - |
| 1778061558 | 17.22° C | 72% | 1005.6 hPa | 0 mm | - | - | - |
| 1778060354 | 16.67° C | 74% | 1005.7 hPa | 0 mm | - | - | - |
| 1778059150 | 16.67° C | 77% | 1005.8 hPa | 0 mm | - | - | - |
| 1778057344 | 16.11° C | 77% | 1005.5 hPa | 0 mm | - | - | - |
| 1778056742 | 16.11° C | 78% | 1005.4 hPa | 0 mm | - | - | - |
| 1778055538 | 15.56° C | 80% | 1005.3 hPa | 0 mm | - | - | - |
| 1778054334 | 15° C | 84% | 1005.5 hPa | 0 mm | - | - | - |
* Rain latest hour (hover to see other rain measurements)
** Current wind speed in m/s (hover to see current wind gust speed)